createdAt,value
2018-03-23T00:01:48.487Z,100530.72
2018-03-23T00:04:16.071Z,100531.05
2018-03-23T00:06:43.686Z,100526.28
2018-03-23T00:09:11.321Z,100522.48
2018-03-23T00:11:38.954Z,100527.52
2018-03-23T00:14:06.575Z,100517.16
2018-03-23T00:16:34.178Z,100516.48
2018-03-23T00:19:01.810Z,100511.80
2018-03-23T00:21:29.413Z,100520.16
2018-03-23T00:23:57.056Z,100515.75
2018-03-23T00:26:24.730Z,100507.89
2018-03-23T00:28:52.391Z,100513.05
2018-03-23T00:31:19.983Z,100511.16
2018-03-23T00:33:47.639Z,100505.96
2018-03-23T00:36:15.251Z,100508.50
2018-03-23T00:38:42.882Z,100505.64
2018-03-23T00:41:10.467Z,100500.39
2018-03-23T00:43:38.112Z,100506.30
2018-03-23T00:46:05.719Z,100507.30
2018-03-23T00:48:33.387Z,100498.23
2018-03-23T00:51:00.978Z,100498.77
2018-03-23T00:53:28.631Z,100498.69
2018-03-23T00:55:56.231Z,100498.69
2018-03-23T00:58:23.871Z,100494.94
2018-03-23T01:00:51.598Z,100489.73
2018-03-23T01:03:19.256Z,100491.74
2018-03-23T01:05:46.867Z,100488.33
2018-03-23T01:08:14.507Z,100489.48
2018-03-23T01:10:42.097Z,100485.83
2018-03-23T01:13:09.735Z,100481.67
2018-03-23T01:15:37.466Z,100479.13
2018-03-23T01:18:05.111Z,100474.93
2018-03-23T01:20:32.718Z,100473.27
2018-03-23T01:23:00.317Z,100473.56
2018-03-23T01:25:27.914Z,100470.81
2018-03-23T01:27:55.590Z,100471.45
2018-03-23T01:30:23.188Z,100461.16
2018-03-23T01:32:50.821Z,100465.16
2018-03-23T01:35:18.422Z,100456.21
2018-03-23T01:37:46.047Z,100456.25
2018-03-23T01:40:13.665Z,100452.51
2018-03-23T01:42:41.289Z,100456.12
2018-03-23T01:45:08.909Z,100451.14
2018-03-23T01:47:36.557Z,100446.10
2018-03-23T01:50:04.151Z,100451.05
2018-03-23T01:52:31.782Z,100445.77
2018-03-23T01:54:59.390Z,100443.68
2018-03-23T01:57:27.030Z,100443.68
2018-03-23T01:59:54.723Z,100439.81
2018-03-23T02:02:22.354Z,100439.48
2018-03-23T02:04:49.972Z,100432.04
2018-03-23T02:07:17.674Z,100431.28
2018-03-23T02:09:45.313Z,100425.03
2018-03-23T02:12:12.946Z,100424.09
2018-03-23T02:14:40.575Z,100418.84
2018-03-23T02:17:08.214Z,100414.06
2018-03-23T02:19:35.822Z,100406.86
2018-03-23T02:22:03.482Z,100410.48
2018-03-23T02:24:31.078Z,100405.70
2018-03-23T02:26:58.697Z,100408.20
2018-03-23T02:29:26.318Z,100399.37
2018-03-23T02:31:53.942Z,100399.09
2018-03-23T02:34:21.575Z,100400.29
2018-03-23T02:36:49.186Z,100400.25
2018-03-23T02:39:16.832Z,100396.42
2018-03-23T02:41:44.482Z,100392.14
2018-03-23T02:44:12.091Z,100391.86
2018-03-23T02:46:39.712Z,100388.08
2018-03-23T02:49:07.331Z,100388.78
2018-03-23T02:51:34.920Z,100387.91
2018-03-23T02:54:02.543Z,100387.45
2018-03-23T02:56:30.156Z,100385.03
2018-03-23T02:58:57.795Z,100380.22
2018-03-23T03:01:25.383Z,100385.34
2018-03-23T03:03:53.019Z,100380.23
2018-03-23T03:06:20.636Z,100378.69
2018-03-23T03:08:48.283Z,100376.78
2018-03-23T03:11:15.878Z,100374.45
2018-03-23T03:13:43.505Z,100366.02
2018-03-23T03:16:11.109Z,100367.34
2018-03-23T03:18:38.767Z,100364.12
2018-03-23T03:21:06.370Z,100361.14
2018-03-23T03:23:34.002Z,100351.45
2018-03-23T03:26:01.606Z,100349.36
2018-03-23T03:28:29.223Z,100355.36
2018-03-23T03:30:56.834Z,100347.75
2018-03-23T03:33:24.541Z,100345.08
2018-03-23T03:35:52.156Z,100340.64
2018-03-23T03:38:19.798Z,100340.73
2018-03-23T03:40:47.391Z,100340.51
2018-03-23T03:43:15.075Z,100335.19
2018-03-23T03:45:42.667Z,100338.77
2018-03-23T03:48:10.415Z,100333.66
2018-03-23T03:50:38.005Z,100328.17
2018-03-23T03:53:05.603Z,100330.83
2018-03-23T03:55:33.202Z,100333.91
2018-03-23T03:58:00.846Z,100324.67
2018-03-23T04:00:28.454Z,100333.20
2018-03-23T04:02:56.161Z,100340.64
2018-03-23T04:05:23.758Z,100326.38
2018-03-23T04:07:51.631Z,100329.88
2018-03-23T04:10:19.222Z,100325.59
2018-03-23T04:12:46.883Z,100328.18
2018-03-23T04:15:14.487Z,100328.72
2018-03-23T04:17:42.118Z,100325.94
2018-03-23T04:20:09.744Z,100326.98
2018-03-23T04:22:37.367Z,100328.22
2018-03-23T04:25:04.976Z,100325.27
2018-03-23T04:27:32.595Z,100327.48
2018-03-23T04:30:00.178Z,100321.33
2018-03-23T04:32:27.808Z,100327.47
2018-03-23T04:34:55.459Z,100324.89
2018-03-23T04:37:23.083Z,100321.57
2018-03-23T04:39:50.719Z,100334.95
2018-03-23T04:42:18.334Z,100324.36
2018-03-23T04:44:45.968Z,100320.08
2018-03-23T04:47:13.683Z,100316.91
2018-03-23T04:49:41.310Z,100311.02
2018-03-23T04:52:08.910Z,100309.98
2018-03-23T04:54:36.575Z,100302.04
2018-03-23T04:57:04.169Z,100304.28
2018-03-23T04:59:31.789Z,100291.36
2018-03-23T05:01:59.384Z,100299.88
2018-03-23T05:04:27.027Z,100299.83
2018-03-23T05:06:54.624Z,100299.62
2018-03-23T05:09:22.239Z,100298.55
2018-03-23T05:11:49.849Z,100294.48
2018-03-23T05:14:17.548Z,100290.90
2018-03-23T05:16:45.145Z,100290.73
2018-03-23T05:19:12.770Z,100291.98
2018-03-23T05:21:40.399Z,100294.13
2018-03-23T05:24:08.038Z,100295.92
2018-03-23T05:26:35.635Z,100293.55
2018-03-23T05:29:03.260Z,100289.69
2018-03-23T05:31:30.872Z,100284.20
2018-03-23T05:33:58.546Z,100286.39
2018-03-23T05:36:26.147Z,100285.57
2018-03-23T05:38:53.784Z,100285.31
2018-03-23T05:41:21.398Z,100287.23
2018-03-23T05:43:49.036Z,100292.02
2018-03-23T05:46:16.625Z,100287.03
2018-03-23T05:48:44.260Z,100291.23
2018-03-23T05:51:11.884Z,100291.06
2018-03-23T05:53:39.502Z,100279.18
2018-03-23T05:56:07.091Z,100285.33
2018-03-23T05:58:34.811Z,100282.42
2018-03-23T06:01:02.423Z,100279.22
2018-03-23T06:03:30.039Z,100280.34
2018-03-23T06:05:57.784Z,100280.67
2018-03-23T06:08:25.446Z,100277.23
2018-03-23T06:10:53.046Z,100280.30
2018-03-23T06:13:20.665Z,100278.60
2018-03-23T06:15:48.270Z,100277.44
2018-03-23T06:18:15.881Z,100281.39
2018-03-23T06:20:43.474Z,100280.96
2018-03-23T06:23:11.106Z,100278.22
2018-03-23T06:25:38.690Z,100277.77
2018-03-23T06:28:06.283Z,100280.05
2018-03-23T06:30:33.923Z,100276.06
2018-03-23T06:33:01.516Z,100277.36
2018-03-23T06:35:29.155Z,100276.69
2018-03-23T06:37:56.756Z,100275.31
2018-03-23T06:40:24.400Z,100278.02
2018-03-23T06:42:51.989Z,100286.32
2018-03-23T06:45:19.624Z,100271.00
2018-03-23T06:47:47.218Z,100275.78
2018-03-23T06:50:14.855Z,100268.01
2018-03-23T06:52:42.470Z,100279.77
2018-03-23T06:55:10.094Z,100275.23
2018-03-23T06:57:37.735Z,100269.80
2018-03-23T07:00:05.366Z,100271.00
2018-03-23T07:02:32.976Z,100268.50
2018-03-23T07:05:00.615Z,100273.45
2018-03-23T07:07:28.242Z,100267.22
2018-03-23T07:09:55.946Z,100268.22
2018-03-23T07:12:23.546Z,100264.77
2018-03-23T07:14:51.160Z,100264.69
2018-03-23T07:17:18.755Z,100267.77
2018-03-23T07:19:46.382Z,100264.86
2018-03-23T07:22:13.976Z,100268.13
2018-03-23T07:24:41.646Z,100264.84
2018-03-23T07:27:09.230Z,100266.80
2018-03-23T07:29:36.886Z,100269.46
2018-03-23T07:32:04.486Z,100275.36
2018-03-23T07:34:32.107Z,100272.13
2018-03-23T07:36:59.807Z,100274.53
2018-03-23T07:39:27.422Z,100275.36
2018-03-23T07:41:55.489Z,100266.30
2018-03-23T07:44:23.122Z,100266.47
2018-03-23T07:46:50.722Z,100266.22
2018-03-23T07:49:18.342Z,100256.78
2018-03-23T07:51:45.943Z,100258.22
2018-03-23T07:54:13.610Z,100252.19
2018-03-23T07:56:41.223Z,100250.26
2018-03-23T07:59:08.915Z,100248.92
2018-03-23T08:01:36.528Z,100253.08
2018-03-23T08:04:04.142Z,100258.73
2018-03-23T08:06:31.744Z,100258.22
2018-03-23T08:08:59.459Z,100255.05
2018-03-23T08:11:27.060Z,100252.97
2018-03-23T08:13:54.695Z,100240.73
2018-03-23T08:16:22.302Z,100236.81
2018-03-23T08:18:49.964Z,100233.68
2018-03-23T08:21:17.558Z,100231.62
2018-03-23T08:23:45.175Z,100229.94
2018-03-23T08:26:12.763Z,100231.11
2018-03-23T08:28:40.450Z,100224.11
2018-03-23T08:31:08.017Z,100221.95
2018-03-23T08:33:35.747Z,100222.02
2018-03-23T08:36:03.334Z,100221.28
2018-03-23T08:38:30.952Z,100219.67
2018-03-23T08:40:58.550Z,100216.12
2018-03-23T08:43:26.178Z,100211.43
2018-03-23T08:45:53.771Z,100210.69
2018-03-23T08:48:21.410Z,100209.80
2018-03-23T08:50:49.049Z,100205.45
2018-03-23T08:53:16.674Z,100196.67
2018-03-23T08:55:44.346Z,100209.09
2018-03-23T08:58:11.971Z,100202.47
2018-03-23T09:00:39.623Z,100210.17
2018-03-23T09:03:07.253Z,100204.20
2018-03-23T09:05:34.840Z,100207.28
2018-03-23T09:08:02.534Z,100205.07
2018-03-23T09:10:30.143Z,100202.41
2018-03-23T09:12:57.765Z,100198.98
2018-03-23T09:15:25.415Z,100198.09
2018-03-23T09:17:53.048Z,100196.94
2018-03-23T09:20:20.645Z,100192.20
2018-03-23T09:22:48.298Z,100189.17
2018-03-23T09:25:15.886Z,100178.62
2018-03-23T09:27:43.531Z,100180.26
2018-03-23T09:30:11.239Z,100173.00
2018-03-23T09:32:38.835Z,100170.31
2018-03-23T09:35:06.450Z,100160.62
2018-03-23T09:37:34.083Z,100161.16
2018-03-23T09:40:01.678Z,100156.00
2018-03-23T09:42:29.355Z,100156.79
2018-03-23T09:44:56.965Z,100152.56
2018-03-23T09:47:24.596Z,100149.05
2018-03-23T09:49:52.203Z,100148.77
2018-03-23T09:52:19.806Z,100144.73
2018-03-23T09:54:47.423Z,100150.36
2018-03-23T09:57:15.193Z,100137.03
2018-03-23T09:59:42.782Z,100138.25
2018-03-23T10:02:10.371Z,100133.68
2018-03-23T10:04:37.988Z,100124.46
2018-03-23T10:07:05.562Z,100121.95
2018-03-23T10:09:33.251Z,100118.06
2018-03-23T10:12:00.842Z,100116.88
2018-03-23T10:14:28.529Z,100112.66
2018-03-23T10:16:56.139Z,100116.64
2018-03-23T10:19:23.814Z,100108.16
2018-03-23T10:21:51.405Z,100109.50
2018-03-23T10:24:19.027Z,100107.08
2018-03-23T10:26:46.614Z,100102.55
2018-03-23T10:29:14.278Z,100100.80
2018-03-23T10:31:41.874Z,100101.25
2018-03-23T10:34:09.530Z,100100.80
2018-03-23T10:36:37.110Z,100094.83
2018-03-23T10:39:04.777Z,100084.30
2018-03-23T10:41:32.431Z,100081.13
2018-03-23T10:44:00.060Z,100080.70
2018-03-23T10:46:27.660Z,100076.18
2018-03-23T10:48:55.327Z,100078.48
2018-03-23T10:51:22.953Z,100080.20
2018-03-23T10:53:50.579Z,100074.48
2018-03-23T10:56:18.171Z,100069.95
2018-03-23T10:58:45.798Z,100071.55
2018-03-23T11:01:18.751Z,100067.01
2018-03-23T11:03:46.359Z,100064.08
2018-03-23T11:06:13.958Z,100061.16
2018-03-23T11:08:41.590Z,100051.29
2018-03-23T11:11:09.209Z,100054.52
2018-03-23T11:13:36.834Z,100046.92
2018-03-23T11:16:04.443Z,100046.94
2018-03-23T11:18:32.111Z,100047.06
2018-03-23T11:20:59.698Z,100046.41
2018-03-23T11:23:27.346Z,100039.75
2018-03-23T11:25:54.958Z,100041.66
2018-03-23T11:28:22.578Z,100037.09
2018-03-23T11:30:50.171Z,100028.17
2018-03-23T11:33:17.834Z,100027.61
2018-03-23T11:35:45.419Z,100020.82
2018-03-23T11:38:13.070Z,100020.16
2018-03-23T11:40:40.674Z,100015.36
2018-03-23T11:43:08.342Z,100010.53
2018-03-23T11:45:35.945Z,100013.48
2018-03-23T11:48:03.613Z,100007.73
2018-03-23T11:50:31.215Z,99996.40
2018-03-23T11:52:58.838Z,99991.19
2018-03-23T11:55:26.426Z,99987.72
2018-03-23T11:57:54.060Z,99986.11
2018-03-23T12:00:21.667Z,99991.85
2018-03-23T12:02:49.296Z,99990.62
2018-03-23T12:05:16.886Z,99983.94
2018-03-23T12:07:44.539Z,99977.27
2018-03-23T12:10:12.138Z,99973.81
2018-03-23T12:12:40.015Z,99963.03
2018-03-23T12:15:07.620Z,99965.02
2018-03-23T12:17:35.229Z,99965.95
2018-03-23T12:20:02.891Z,99965.69
2018-03-23T12:22:30.515Z,99958.23
2018-03-23T12:24:58.126Z,99948.09
2018-03-23T12:27:25.859Z,99951.56
2018-03-23T12:29:53.424Z,99950.77
2018-03-23T12:32:21.034Z,99954.61
2018-03-23T12:34:48.703Z,99946.46
2018-03-23T12:37:16.256Z,99952.48
2018-03-23T12:39:43.856Z,99947.13
2018-03-23T12:42:11.474Z,99943.13
2018-03-23T12:44:39.078Z,99941.38
2018-03-23T12:47:06.704Z,99947.52
2018-03-23T12:49:34.314Z,99940.06
2018-03-23T12:52:01.909Z,99938.45
2018-03-23T12:54:29.534Z,99931.78
2018-03-23T12:56:57.138Z,99928.97
2018-03-23T12:59:24.753Z,99926.33
2018-03-23T13:01:52.383Z,99924.19
2018-03-23T13:04:19.974Z,99921.14
2018-03-23T13:06:47.600Z,99921.64
2018-03-23T13:09:15.262Z,99916.18
2018-03-23T13:11:42.898Z,99913.27
2018-03-23T13:14:10.530Z,99907.94
2018-03-23T13:16:38.129Z,99908.23
2018-03-23T13:19:05.746Z,99903.53
2018-03-23T13:21:33.331Z,99906.60
2018-03-23T13:24:01.018Z,99908.20
2018-03-23T13:26:28.631Z,99899.39
2018-03-23T13:28:56.258Z,99896.62
2018-03-23T13:31:23.867Z,99907.92
2018-03-23T13:33:51.486Z,99897.24
2018-03-23T13:36:19.226Z,99894.45
2018-03-23T13:38:46.935Z,99886.08
2018-03-23T13:41:14.556Z,99885.68
2018-03-23T13:43:42.165Z,99879.94
2018-03-23T13:46:09.802Z,99881.67
2018-03-23T13:48:37.419Z,99881.00
2018-03-23T13:51:05.023Z,99874.73
2018-03-23T13:53:32.654Z,99878.06
2018-03-23T13:56:00.259Z,99871.66
2018-03-23T13:58:33.449Z,99871.54
2018-03-23T14:01:01.760Z,99870.47
2018-03-23T14:03:29.377Z,99863.25
2018-03-23T14:05:56.972Z,99858.33
2018-03-23T14:08:24.601Z,99859.67
2018-03-23T14:10:52.187Z,99863.41
2018-03-23T14:13:19.832Z,99865.80
2018-03-23T14:15:47.443Z,99868.46
2018-03-23T14:18:15.060Z,99865.93
2018-03-23T14:20:42.648Z,99864.45
2018-03-23T14:23:10.251Z,99854.99
2018-03-23T14:25:38.010Z,99853.41
2018-03-23T14:28:05.618Z,99850.20
2018-03-23T14:30:33.295Z,99845.81
2018-03-23T14:33:00.947Z,99847.15
2018-03-23T14:35:28.542Z,99847.00
2018-03-23T14:37:56.299Z,99844.59
2018-03-23T14:40:23.958Z,99839.00
2018-03-23T14:42:51.585Z,99836.47
2018-03-23T14:45:19.199Z,99836.98
2018-03-23T14:47:46.823Z,99833.11
2018-03-23T14:50:14.426Z,99840.05
2018-03-23T14:52:42.048Z,99841.93
2018-03-23T14:55:09.631Z,99839.66
2018-03-23T14:57:37.259Z,99836.99
2018-03-23T15:00:04.881Z,99836.45
2018-03-23T15:02:32.510Z,99833.27
2018-03-23T15:05:00.096Z,99822.47
2018-03-23T15:07:27.707Z,99823.39
2018-03-23T15:09:55.328Z,99818.33
2018-03-23T15:12:22.951Z,99823.81
2018-03-23T15:14:50.626Z,99822.58
2018-03-23T15:17:18.231Z,99825.93
2018-03-23T15:19:45.857Z,99824.73
2018-03-23T15:22:13.482Z,99813.78
2018-03-23T15:24:41.069Z,99819.52
2018-03-23T15:27:08.762Z,99816.57
2018-03-23T15:29:36.363Z,99821.11
2018-03-23T15:32:04.091Z,99818.86
2018-03-23T15:34:31.682Z,99811.27
2018-03-23T15:36:59.472Z,99812.84
2018-03-23T15:39:27.078Z,99815.90
2018-03-23T15:41:54.756Z,99806.97
2018-03-23T15:44:22.366Z,99808.57
2018-03-23T15:46:49.950Z,99804.03
2018-03-23T15:49:17.574Z,99805.91
2018-03-23T15:51:45.187Z,99812.98
2018-03-23T15:54:12.807Z,99802.97
2018-03-23T15:56:40.386Z,99803.64
2018-03-23T15:59:08.008Z,99796.17
2018-03-23T16:01:35.601Z,99792.99
2018-03-23T16:04:03.235Z,99792.03
2018-03-23T16:06:30.837Z,99788.31
2018-03-23T16:08:58.462Z,99788.72
2018-03-23T16:11:26.054Z,99789.91
2018-03-23T16:13:53.701Z,99790.70
2018-03-23T16:16:21.283Z,99791.25
2018-03-23T16:18:48.910Z,99788.98
2018-03-23T16:21:16.506Z,99786.72
2018-03-23T16:23:44.122Z,99785.26
2018-03-23T16:26:11.742Z,99786.84
2018-03-23T16:28:39.354Z,99789.79
2018-03-23T16:31:06.948Z,99789.78
2018-03-23T16:33:34.622Z,99781.38
2018-03-23T16:36:02.222Z,99783.91
2018-03-23T16:38:29.831Z,99782.17
2018-03-23T16:40:57.427Z,99775.77
2018-03-23T16:43:25.088Z,99777.93
2018-03-23T16:45:52.710Z,99778.05
2018-03-23T16:48:20.307Z,99773.22
2018-03-23T16:50:47.948Z,99776.81
2018-03-23T16:53:15.546Z,99778.00
2018-03-23T16:55:43.168Z,99776.12
2018-03-23T16:58:10.827Z,99769.60
2018-03-23T17:00:38.427Z,99760.81
2018-03-23T17:03:06.074Z,99763.06
2018-03-23T17:05:33.730Z,99764.39
2018-03-23T17:08:01.340Z,99760.55
2018-03-23T17:10:28.951Z,99762.80
2018-03-23T17:12:56.546Z,99765.03
2018-03-23T17:15:24.151Z,99761.20
2018-03-23T17:17:51.741Z,99756.80
2018-03-23T17:20:19.429Z,99756.51
2018-03-23T17:22:47.029Z,99763.03
2018-03-23T17:25:14.712Z,99762.24
2018-03-23T17:27:42.324Z,99760.23
2018-03-23T17:30:09.990Z,99759.19
2018-03-23T17:32:37.610Z,99761.19
2018-03-23T17:35:05.302Z,99753.73
2018-03-23T17:37:32.895Z,99754.52
2018-03-23T17:40:00.576Z,99753.72
2018-03-23T17:42:28.187Z,99749.72
2018-03-23T17:44:55.831Z,99755.84
2018-03-23T17:47:23.435Z,99752.39
2018-03-23T17:49:51.072Z,99756.39
2018-03-23T17:52:18.725Z,99755.73
2018-03-23T17:54:46.368Z,99751.33
2018-03-23T17:57:13.958Z,99757.57
2018-03-23T17:59:41.573Z,99767.84
2018-03-23T18:02:09.224Z,99764.50
2018-03-23T18:04:36.898Z,99766.38
2018-03-23T18:07:04.564Z,99763.19
2018-03-23T18:09:32.225Z,99763.84
2018-03-23T18:11:59.825Z,99761.98
2018-03-23T18:14:27.449Z,99765.55
2018-03-23T18:16:55.097Z,99758.23
2018-03-23T18:19:22.694Z,99756.63
2018-03-23T18:21:50.327Z,99763.16
2018-03-23T18:24:17.942Z,99761.83
2018-03-23T18:26:45.572Z,99757.69
2018-03-23T18:29:13.243Z,99753.56
2018-03-23T18:31:40.938Z,99761.16
2018-03-23T18:34:08.556Z,99749.17
2018-03-23T18:36:36.211Z,99761.82
2018-03-23T18:39:03.842Z,99752.34
2018-03-23T18:41:31.470Z,99759.14
2018-03-23T18:43:59.058Z,99759.66
2018-03-23T18:46:26.714Z,99771.13
2018-03-23T18:48:54.318Z,99762.32
2018-03-23T18:51:21.945Z,99761.14
2018-03-23T18:53:49.538Z,99760.21
2018-03-23T18:56:17.166Z,99755.94
2018-03-23T18:58:44.763Z,99755.93
2018-03-23T19:01:12.404Z,99756.48
2018-03-23T19:03:39.987Z,99754.47
2018-03-23T19:06:07.616Z,99754.47
2018-03-23T19:08:35.226Z,99752.48
2018-03-23T19:11:03.961Z,99748.41
2018-03-23T19:13:31.558Z,99746.59
2018-03-23T19:15:59.186Z,99750.16
2018-03-23T19:18:26.790Z,99740.40
2018-03-23T19:20:54.416Z,99737.17
2018-03-23T19:23:22.028Z,99732.90
2018-03-23T19:25:49.690Z,99731.30
2018-03-23T19:28:17.285Z,99732.22
2018-03-23T19:30:44.908Z,99731.03
